Time;durP1;ratioP1;P1;durP2;ratioP2;P2;SDS_P1;SDS_P2;PMS_P1;PMS_P2;Temp;Humidity;BMP_temperature;BMP_pressure;BME280_temperature;BME280_humidity;BME280_pressure;Samples;Min_cycle;Max_cycle;Signal;HPM_P1;HPM_P2
2023/04/09 00:01:06;;;;;;;28.25;17.30;;;;;;;6.58;79.49;94100.06;5066504;28;20017;-70
2023/04/09 00:03:33;;;;;;;27.33;16.40;;;;;;;6.58;79.25;94097.41;5066213;28;20041;-69
2023/04/09 00:05:58;;;;;;;28.75;17.08;;;;;;;6.57;79.22;94105.63;5066249;28;20091;-70
2023/04/09 00:08:24;;;;;;;31.40;16.75;;;;;;;6.50;79.27;94103.34;5066377;28;20073;-70
2023/04/09 00:10:51;;;;;;;24.85;16.00;;;;;;;6.53;79.06;94105.41;5066325;28;20102;-70
2023/04/09 00:13:17;;;;;;;28.63;16.90;;;;;;;6.53;78.90;94110.69;5065136;28;20074;-70
2023/04/09 00:15:43;;;;;;;26.02;16.38;;;;;;;6.52;79.17;94117.09;5066055;28;20040;-70
2023/04/09 00:18:09;;;;;;;26.15;15.45;;;;;;;6.53;79.29;94113.34;5066011;28;20025;-70
2023/04/09 00:20:34;;;;;;;30.42;15.52;;;;;;;6.56;78.93;94117.31;5066185;28;20023;-70
2023/04/09 00:23:00;;;;;;;28.92;16.38;;;;;;;6.51;79.00;94104.91;5065916;28;20025;-70
2023/04/09 00:25:25;;;;;;;25.42;15.90;;;;;;;6.51;79.29;94106.75;5066046;28;20090;-70
2023/04/09 00:27:51;;;;;;;27.50;16.65;;;;;;;6.53;79.43;94110.69;5065912;28;20039;-69
2023/04/09 00:30:16;;;;;;;28.98;15.23;;;;;;;6.58;79.70;94107.22;5065986;28;20021;-70
2023/04/09 00:32:41;;;;;;;23.13;14.60;;;;;;;6.59;79.49;94108.78;5066068;28;20017;-70
2023/04/09 00:35:07;;;;;;;28.90;15.13;;;;;;;6.58;79.25;94110.66;5065936;28;20322;-70
2023/04/09 00:37:33;;;;;;;26.63;14.38;;;;;;;6.53;79.55;94113.34;5065790;28;20023;-70
2023/04/09 00:39:59;;;;;;;26.10;15.57;;;;;;;6.51;79.72;94126.09;5065551;28;20309;-70
2023/04/09 00:42:26;;;;;;;24.08;15.23;;;;;;;6.53;79.92;94113.34;5065596;28;20219;-70
2023/04/09 00:44:51;;;;;;;25.05;14.70;;;;;;;6.52;80.02;94114.44;5065509;28;20341;-70
2023/04/09 00:47:17;;;;;;;24.25;14.10;;;;;;;6.52;79.93;94109.13;5065668;28;20048;-70
2023/04/09 00:49:43;;;;;;;21.63;13.70;;;;;;;6.51;79.42;94112.84;5065567;28;20029;-70
2023/04/09 00:52:09;;;;;;;29.45;15.20;;;;;;;6.46;79.55;94118.22;5065322;28;20247;-70
2023/04/09 00:54:35;;;;;;;23.05;14.48;;;;;;;6.45;79.46;94119.25;5065511;28;20029;-70
2023/04/09 00:57:00;;;;;;;24.15;14.95;;;;;;;6.45;79.83;94119.25;5065350;28;20294;-70
2023/04/09 00:59:26;;;;;;;23.58;14.63;;;;;;;6.45;79.78;94119.25;5065216;28;20050;-70
2023/04/09 01:01:51;;;;;;;25.85;14.73;;;;;;;6.40;79.94;94111.38;5065286;28;20029;-71
2023/04/09 01:04:18;;;;;;;25.35;15.48;;;;;;;6.40;79.92;94112.16;5065206;28;20096;-71
2023/04/09 01:07:02;;;;;;;27.23;15.73;;;;;;;6.42;79.86;94120.63;5065483;28;20047;-71
2023/04/09 01:09:47;;;;;;;28.30;14.15;;;;;;;6.45;79.92;94118.47;5065172;28;20024;-71
2023/04/09 01:12:21;;;;;;;23.05;13.85;;;;;;;6.45;79.65;94124.56;5065145;28;20025;-71
2023/04/09 01:15:02;;;;;;;28.10;15.80;;;;;;;6.40;79.19;94119.31;5065358;28;20025;-71
2023/04/09 01:17:45;;;;;;;27.33;15.48;;;;;;;6.34;79.44;94128.38;5064935;28;20086;-71
2023/04/09 01:20:26;;;;;;;27.30;16.48;;;;;;;6.27;79.97;94128.72;5064854;28;20029;-70
2023/04/09 01:23:03;;;;;;;29.95;18.02;;;;;;;6.18;80.30;94131.16;5064645;28;20028;-71
2023/04/09 01:25:40;;;;;;;26.15;16.02;;;;;;;6.20;80.70;94122.94;5064932;28;20024;-72
2023/04/09 01:28:16;;;;;;;26.70;16.17;;;;;;;6.25;80.71;94130.84;5064866;28;20029;-72
2023/04/09 01:30:46;;;;;;;24.83;15.75;;;;;;;6.28;80.67;94132.16;5064565;28;20107;-72
2023/04/09 01:33:14;;;;;;;28.23;14.80;;;;;;;6.28;80.46;94124.22;5064745;28;20020;-71
2023/04/09 01:35:42;;;;;;;24.15;15.20;;;;;;;6.27;80.50;94128.72;5064676;28;20025;-72
2023/04/09 01:38:09;;;;;;;25.05;15.48;;;;;;;6.29;80.36;94126.59;5064648;28;20032;-70
2023/04/09 01:40:35;;;;;;;26.83;16.15;;;;;;;6.30;80.42;94125.50;5064647;28;20020;-71
2023/04/09 01:43:02;;;;;;;25.42;14.77;;;;;;;6.32;80.51;94120.72;5064337;28;20036;-71
2023/04/09 01:45:27;;;;;;;26.08;15.48;;;;;;;6.36;80.12;94123.59;5064478;28;20020;-70
2023/04/09 01:47:54;;;;;;;27.85;15.73;;;;;;;6.34;80.01;94123.09;5064468;28;20048;-70
2023/04/09 01:50:19;;;;;;;22.70;14.77;;;;;;;6.34;80.02;94126.53;5064348;28;20036;-71
2023/04/09 01:52:46;;;;;;;23.83;15.35;;;;;;;6.32;79.95;94123.38;5064457;28;20096;-71
2023/04/09 01:55:11;;;;;;;24.35;14.77;;;;;;;6.31;79.87;94127.09;5063138;28;20017;-70
2023/04/09 01:57:36;;;;;;;25.13;14.40;;;;;;;6.32;79.65;94127.88;5064137;28;20212;-70
2023/04/09 02:00:03;;;;;;;24.88;14.65;;;;;;;6.31;79.22;94129.75;5064283;28;20028;-71
2023/04/09 02:02:44;;;;;;;25.23;14.93;;;;;;;6.22;79.76;94129.53;5064017;28;20100;-71
2023/04/09 02:05:14;;;;;;;25.50;15.27;;;;;;;6.11;80.15;94122.78;5064201;28;20100;-71
2023/04/09 02:07:44;;;;;;;23.00;14.00;;;;;;;6.08;80.63;94120.66;5064179;28;20024;-71
2023/04/09 02:10:12;;;;;;;22.75;13.80;;;;;;;6.08;80.35;94119.88;5063857;28;20021;-71
2023/04/09 02:12:41;;;;;;;26.00;14.82;;;;;;;6.02;80.50;94127.06;5063951;28;20025;-71
2023/04/09 02:15:08;;;;;;;25.23;14.18;;;;;;;6.01;80.50;94120.22;5063525;28;20032;-71
2023/04/09 02:17:34;;;;;;;24.60;15.20;;;;;;;5.99;80.47;94122.34;5063839;28;20127;-71
2023/04/09 02:19:59;;;;;;;23.52;14.57;;;;;;;6.01;80.53;94126.28;5063750;28;20271;-71
2023/04/09 02:22:25;;;;;;;27.73;16.63;;;;;;;6.06;80.41;94122.78;5063833;28;20044;-71
2023/04/09 02:24:50;;;;;;;28.33;16.85;;;;;;;6.07;79.97;94123.59;5063669;28;20036;-71
2023/04/09 02:27:15;;;;;;;26.20;16.33;;;;;;;6.03;79.74;94123.38;5063902;28;20032;-71
2023/04/09 02:29:41;;;;;;;32.85;18.33;;;;;;;6.04;79.43;94124.94;5063631;28;20025;-71
2023/04/09 02:32:07;;;;;;;31.48;17.98;;;;;;;5.99;79.46;94117.06;5063557;28;20024;-72
2023/04/09 02:34:32;;;;;;;31.58;18.05;;;;;;;5.94;79.48;94122.34;5063549;28;20322;-71
2023/04/09 02:36:58;;;;;;;30.38;18.33;;;;;;;5.92;79.44;94117.34;5063578;28;20021;-71
2023/04/09 02:39:23;;;;;;;27.23;17.15;;;;;;;5.93;79.32;94115.47;5063346;28;20224;-71
2023/04/09 02:41:49;;;;;;;28.05;17.92;;;;;;;5.95;78.80;94113.38;5063388;28;20341;-71
2023/04/09 02:44:14;;;;;;;35.20;17.77;;;;;;;5.91;79.12;94120.25;5063523;28;20029;-71
2023/04/09 02:46:40;;;;;;;29.05;16.17;;;;;;;5.87;78.78;94120.03;5063345;28;20029;-71
2023/04/09 02:49:06;;;;;;;24.30;15.38;;;;;;;5.86;78.76;94121.06;5063131;28;20029;-71
2023/04/09 02:51:34;;;;;;;26.45;14.60;;;;;;;5.84;78.33;94112.63;5063348;28;20075;-71
2023/04/09 02:54:00;;;;;;;20.38;11.93;;;;;;;5.77;78.01;94105.00;5063046;28;20045;-72
2023/04/09 02:56:25;;;;;;;22.95;13.00;;;;;;;5.70;78.04;94115.13;5063030;28;20354;-72
2023/04/09 02:58:52;;;;;;;20.45;12.75;;;;;;;5.66;78.04;94119.38;5063122;28;20025;-72
2023/04/09 03:01:19;;;;;;;24.42;14.20;;;;;;;5.64;78.08;94108.31;5063254;28;20032;-71
2023/04/09 03:03:44;;;;;;;24.33;14.38;;;;;;;5.62;78.08;94115.72;5063040;28;20088;-71
2023/04/09 03:06:10;;;;;;;21.20;13.98;;;;;;;5.59;78.27;94110.97;5062913;28;20048;-71
2023/04/09 03:08:35;;;;;;;26.45;14.82;;;;;;;5.58;78.09;94107.53;5063050;28;20017;-71
2023/04/09 03:11:01;;;;;;;19.92;13.10;;;;;;;5.54;77.98;94105.72;5062833;28;20369;-71
2023/04/09 03:13:27;;;;;;;23.13;12.57;;;;;;;5.51;78.08;94108.91;5063002;28;20029;-71
2023/04/09 03:15:52;;;;;;;20.75;12.80;;;;;;;5.49;77.96;94103.09;5063022;28;20227;-71
2023/04/09 03:18:18;;;;;;;20.20;12.57;;;;;;;5.46;77.84;94109.72;5062944;28;20039;-72
2023/04/09 03:20:44;;;;;;;22.67;14.35;;;;;;;5.39;77.83;94106.59;5063184;28;20331;-73
2023/04/09 03:23:10;;;;;;;16.98;11.05;;;;;;;5.37;77.65;94112.19;5062683;28;20029;-72
2023/04/09 03:25:36;;;;;;;21.13;11.75;;;;;;;5.32;77.66;94104.25;5061942;28;20372;-72
2023/04/09 03:28:02;;;;;;;22.20;13.55;;;;;;;5.27;77.73;94106.94;5062532;28;20087;-72
2023/04/09 03:30:27;;;;;;;21.65;13.27;;;;;;;5.22;78.05;94107.75;5061555;28;20025;-71
2023/04/09 03:32:53;;;;;;;24.15;14.40;;;;;;;5.22;78.11;94106.97;5062605;28;20092;-71
2023/04/09 03:35:18;;;;;;;23.42;12.82;;;;;;;5.13;78.27;94103.31;5062413;28;20025;-71
2023/04/09 03:37:44;;;;;;;23.83;13.80;;;;;;;5.12;78.29;94104.38;5062733;28;20093;-71
2023/04/09 03:40:10;;;;;;;27.20;12.90;;;;;;;5.05;78.57;94099.41;5062496;28;20032;-71
2023/04/09 03:42:36;;;;;;;23.25;13.10;;;;;;;5.02;78.73;94111.28;5062601;28;20036;-72
2023/04/09 03:45:02;;;;;;;22.52;12.55;;;;;;;5.01;78.65;94109.72;5062702;28;20052;-71
2023/04/09 03:47:28;;;;;;;23.30;13.73;;;;;;;4.99;78.41;94111.84;5062541;28;20044;-71
2023/04/09 03:49:53;;;;;;;22.15;13.63;;;;;;;4.97;78.42;94111.31;5062456;28;20032;-72
2023/04/09 03:52:19;;;;;;;23.45;14.32;;;;;;;4.91;78.77;94117.69;5062343;28;20288;-71
2023/04/09 03:54:44;;;;;;;22.13;13.75;;;;;;;4.92;78.75;94116.59;5062702;28;20024;-72
2023/04/09 03:57:10;;;;;;;24.00;13.88;;;;;;;4.91;78.58;94115.03;5062145;28;20037;-72
2023/04/09 03:59:35;;;;;;;19.10;12.48;;;;;;;4.92;78.43;94121.09;5062389;28;20025;-71
2023/04/09 04:02:01;;;;;;;21.33;13.43;;;;;;;4.87;78.53;94108.72;5062430;28;20197;-72
2023/04/09 04:04:26;;;;;;;23.75;13.40;;;;;;;4.86;78.58;94117.69;5062245;28;20090;-71
2023/04/09 04:06:51;;;;;;;21.77;11.93;;;;;;;4.86;78.21;94115.06;5062316;28;20043;-71
2023/04/09 04:09:17;;;;;;;21.35;12.50;;;;;;;4.86;78.47;94124.84;5062473;28;20032;-71
2023/04/09 04:11:42;;;;;;;22.10;12.82;;;;;;;4.85;78.82;94116.13;5062410;28;20044;-71
2023/04/09 04:14:08;;;;;;;21.08;12.35;;;;;;;4.89;78.23;94121.66;5062239;28;20218;-71
2023/04/09 04:16:33;;;;;;;20.10;12.02;;;;;;;4.88;78.41;94118.22;5062089;28;20020;-71
2023/04/09 04:18:59;;;;;;;22.88;13.20;;;;;;;4.86;78.53;94117.69;5062242;28;20093;-71
2023/04/09 04:21:24;;;;;;;22.23;12.88;;;;;;;4.86;78.54;94117.69;5062120;28;20029;-71
2023/04/09 04:23:50;;;;;;;22.63;13.98;;;;;;;4.90;78.43;94126.66;5062166;28;20028;-71
2023/04/09 04:26:15;;;;;;;25.10;13.35;;;;;;;4.95;78.29;94125.88;5062295;28;20055;-71
2023/04/09 04:28:41;;;;;;;29.08;15.10;;;;;;;4.95;78.19;94126.66;5062186;28;20119;-71
2023/04/09 04:31:10;;;;;;;21.63;13.23;;;;;;;4.95;78.19;94121.38;5062239;28;20025;-71
2023/04/09 04:33:36;;;;;;;30.35;14.13;;;;;;;5.02;78.21;94121.84;5062028;28;20070;-71
2023/04/09 04:36:10;;;;;;;29.10;15.52;;;;;;;5.02;78.31;94124.50;5062198;28;20029;-71
2023/04/09 04:38:37;;;;;;;29.38;16.80;;;;;;;5.04;78.55;94121.59;5064933;28;20356;-71
2023/04/09 04:41:03;;;;;;;30.15;16.02;;;;;;;5.05;78.71;94120.53;5065798;28;20025;-71
2023/04/09 04:43:29;;;;;;;27.50;16.27;;;;;;;5.11;79.06;94123.91;5065536;28;20021;-71
2023/04/09 04:45:55;;;;;;;27.48;16.27;;;;;;;5.23;79.18;94121.75;5065627;28;20027;-71
2023/04/09 04:48:20;;;;;;;25.73;15.07;;;;;;;5.36;79.33;94120.38;5065545;28;20063;-71
2023/04/09 04:50:46;;;;;;;26.52;15.38;;;;;;;5.46;79.63;94119.53;5065592;28;20027;-72
2023/04/09 04:53:11;;;;;;;26.13;15.52;;;;;;;5.54;79.82;94122.38;5065531;28;20021;-72
2023/04/09 04:55:40;;;;;;;28.30;15.35;;;;;;;5.65;79.96;94123.09;5065689;28;20096;-71
2023/04/09 04:58:06;;;;;;;27.50;15.48;;;;;;;5.82;80.10;94127.97;5064991;28;20327;-72
2023/04/09 05:00:31;;;;;;;29.40;15.32;;;;;;;5.97;80.12;94124.47;5065415;28;20032;-72
2023/04/09 05:02:56;;;;;;;31.50;16.45;;;;;;;6.12;80.05;94120.91;5065269;28;20025;-72
2023/04/09 05:05:22;;;;;;;27.05;16.38;;;;;;;6.27;79.85;94117.31;5065309;28;20021;-72
2023/04/09 05:07:47;;;;;;;26.10;16.00;;;;;;;6.40;79.74;94121.97;5065377;28;20025;-71
2023/04/09 05:10:13;;;;;;;23.95;15.10;;;;;;;6.53;79.28;94117.88;5064999;28;20223;-71
2023/04/09 05:12:38;;;;;;;24.10;14.95;;;;;;;6.68;79.05;94124.88;5065150;28;20104;-71
2023/04/09 05:15:04;;;;;;;35.05;16.25;;;;;;;6.71;78.75;94124.31;5065230;28;20020;-71
2023/04/09 05:17:30;;;;;;;28.98;16.70;;;;;;;6.81;78.83;94126.84;5064988;28;20028;-71
2023/04/09 05:19:56;;;;;;;30.90;17.70;;;;;;;6.85;78.67;94127.84;5064928;28;20258;-72
2023/04/09 05:22:22;;;;;;;28.05;17.17;;;;;;;6.94;78.24;94128.00;5064910;28;20025;-71
2023/04/09 05:24:47;;;;;;;32.67;19.75;;;;;;;7.01;77.95;94129.25;5064824;28;20044;-71
2023/04/09 05:27:13;;;;;;;30.92;17.42;;;;;;;7.07;77.41;94123.91;5064836;28;20028;-72
2023/04/09 05:29:38;;;;;;;31.23;18.15;;;;;;;7.18;76.94;94128.00;5064642;28;20326;-71
2023/04/09 05:32:04;;;;;;;31.85;16.92;;;;;;;7.22;76.46;94121.03;5064696;28;20032;-71
2023/04/09 05:34:30;;;;;;;35.92;17.73;;;;;;;7.30;76.41;94124.94;5064638;28;20035;-71
2023/04/09 05:36:55;;;;;;;40.40;18.20;;;;;;;7.33;76.14;94114.53;5064688;28;20268;-71
2023/04/09 05:39:20;;;;;;;28.60;16.52;;;;;;;7.43;76.02;94122.38;5064567;28;20135;-71
2023/04/09 05:41:46;;;;;;;35.13;18.52;;;;;;;7.48;75.59;94126.00;5064643;28;20032;-71
2023/04/09 05:44:11;;;;;;;33.20;18.52;;;;;;;7.55;75.57;94132.53;5064265;28;20025;-71
2023/04/09 05:46:37;;;;;;;34.80;17.90;;;;;;;7.55;75.20;94134.38;5064460;28;20250;-71
2023/04/09 05:49:02;;;;;;;31.73;16.33;;;;;;;7.62;74.66;94134.84;5063694;28;20291;-71
2023/04/09 05:51:28;;;;;;;34.85;17.63;;;;;;;7.62;74.63;94140.13;5064454;28;20029;-71
2023/04/09 05:53:53;;;;;;;34.95;17.45;;;;;;;7.69;74.54;94132.59;5064282;28;20213;-71
2023/04/09 05:56:21;;;;;;;30.77;17.38;;;;;;;7.74;74.31;94129.88;5064196;28;20041;-71
2023/04/09 05:58:47;;;;;;;27.33;15.80;;;;;;;7.82;73.74;94129.22;5064640;28;20254;-71
2023/04/09 06:01:12;;;;;;;28.92;16.02;;;;;;;7.90;73.08;94124.34;5064153;28;20032;-71
2023/04/09 06:03:38;;;;;;;25.98;14.88;;;;;;;7.95;72.94;94132.22;5063932;28;20531;-71
2023/04/09 06:06:03;;;;;;;25.80;14.18;;;;;;;8.07;72.63;94129.91;5064097;28;20104;-71
2023/04/09 06:08:29;;;;;;;29.65;16.80;;;;;;;8.14;72.07;94130.34;5064041;28;20036;-72
2023/04/09 06:10:54;;;;;;;28.42;16.95;;;;;;;8.21;71.76;94128.06;5064101;28;20266;-71
2023/04/09 06:13:20;;;;;;;26.85;15.25;;;;;;;8.30;71.31;94138.03;5063979;28;20029;-71
2023/04/09 06:15:45;;;;;;;26.42;15.45;;;;;;;8.43;70.86;94132.78;5064134;28;20059;-71
2023/04/09 06:18:11;;;;;;;30.88;15.13;;;;;;;8.59;70.33;94129.88;5063779;28;20063;-71
2023/04/09 06:20:36;;;;;;;25.25;13.50;;;;;;;8.76;69.51;94135.38;5063726;28;20029;-71
2023/04/09 06:23:04;;;;;;;23.85;14.32;;;;;;;8.83;68.73;94142.97;5063703;28;20029;-70
2023/04/09 06:25:29;;;;;;;28.25;14.70;;;;;;;8.90;68.11;94134.63;5063769;28;20261;-71
2023/04/09 06:27:56;;;;;;;22.63;13.05;;;;;;;8.95;67.79;94135.28;5063909;28;20032;-70
2023/04/09 06:30:21;;;;;;;30.02;12.95;;;;;;;9.06;67.60;94133.25;5063709;28;20049;-70
2023/04/09 06:32:47;;;;;;;23.83;12.80;;;;;;;9.13;67.04;94138.16;5063587;28;20350;-70
2023/04/09 06:35:14;;;;;;;21.80;12.50;;;;;;;9.22;66.55;94125.75;5063538;28;20044;-72
2023/04/09 06:37:39;;;;;;;25.83;13.00;;;;;;;9.28;66.24;94135.19;5063606;28;20086;-71
2023/04/09 06:40:06;;;;;;;20.30;12.90;;;;;;;9.41;65.98;94131.72;5063542;28;20339;-70
2023/04/09 06:42:31;;;;;;;22.60;12.95;;;;;;;9.52;65.55;94136.81;5063402;28;20025;-70
2023/04/09 06:44:57;;;;;;;19.27;11.60;;;;;;;9.63;65.26;94146.16;5063248;28;20059;-71
2023/04/09 06:47:22;;;;;;;20.00;12.45;;;;;;;9.75;63.76;94132.31;5063275;28;20056;-71
2023/04/09 06:49:47;;;;;;;27.63;12.90;;;;;;;9.89;63.65;94137.59;5063432;28;20025;-71
2023/04/09 06:52:13;;;;;;;21.65;12.80;;;;;;;9.97;63.54;94142.19;5063285;28;20032;-71
2023/04/09 06:54:39;;;;;;;23.15;13.50;;;;;;;10.11;63.01;94134.94;5063263;28;20041;-71
2023/04/09 06:57:06;;;;;;;23.85;11.70;;;;;;;10.17;62.32;94140.94;5062874;28;20053;-71
2023/04/09 06:59:32;;;;;;;19.95;11.60;;;;;;;10.22;62.18;94135.50;5063061;28;20029;-71
2023/04/09 07:01:58;;;;;;;17.85;10.90;;;;;;;10.36;61.16;94146.09;5062997;28;20211;-70
2023/04/09 07:04:24;;;;;;;21.17;12.93;;;;;;;10.46;59.98;94140.50;5062993;28;20020;-72
2023/04/09 07:06:51;;;;;;;17.58;10.80;;;;;;;10.60;59.18;94143.91;5062975;28;20043;-71
2023/04/09 07:09:17;;;;;;;17.13;10.43;;;;;;;10.71;59.36;94141.00;5063058;28;20095;-72
2023/04/09 07:11:42;;;;;;;15.98;9.88;;;;;;;10.81;59.04;94146.06;5062802;28;20028;-71
2023/04/09 07:14:08;;;;;;;17.33;10.20;;;;;;;10.90;58.27;94141.53;5063021;28;20025;-71
2023/04/09 07:16:33;;;;;;;20.52;11.25;;;;;;;10.97;58.24;94143.75;5062978;28;20033;-71
2023/04/09 07:18:58;;;;;;;15.60;9.52;;;;;;;11.11;57.89;94143.63;5062892;28;20017;-70
2023/04/09 07:21:25;;;;;;;14.57;9.23;;;;;;;11.24;56.74;94140.09;5062874;28;20028;-70
2023/04/09 07:23:51;;;;;;;16.02;9.02;;;;;;;11.40;56.97;94141.22;5062879;28;20033;-69
2023/04/09 07:26:16;;;;;;;15.60;8.77;;;;;;;11.54;55.04;94133.09;5063192;28;20024;-70
2023/04/09 07:28:41;;;;;;;13.88;8.38;;;;;;;11.63;54.92;94138.44;5062888;28;20021;-69
2023/04/09 07:31:07;;;;;;;13.05;8.20;;;;;;;11.74;54.96;94138.91;5062795;28;20048;-70
2023/04/09 07:33:33;;;;;;;14.38;8.80;;;;;;;11.89;53.92;94135.03;5062547;28;20315;-70
2023/04/09 07:35:58;;;;;;;14.45;8.25;;;;;;;11.99;54.18;94140.84;5060552;28;20066;-70
2023/04/09 07:38:24;;;;;;;13.80;8.48;;;;;;;12.10;53.83;94141.31;5060973;28;20227;-70
2023/04/09 07:40:49;;;;;;;15.60;9.23;;;;;;;12.18;54.09;94142.41;5060107;28;20311;-69
2023/04/09 07:43:15;;;;;;;17.08;8.35;;;;;;;12.34;54.19;94150.72;5061035;28;20262;-70
2023/04/09 07:45:41;;;;;;;16.23;9.68;;;;;;;12.44;53.60;94150.41;5061484;28;20219;-70
2023/04/09 07:48:08;;;;;;;14.25;8.95;;;;;;;12.56;52.90;94153.22;5061388;28;20049;-70
2023/04/09 07:50:33;;;;;;;14.38;8.23;;;;;;;12.57;51.96;94160.13;5059910;28;20021;-70
2023/04/09 07:52:59;;;;;;;11.43;7.82;;;;;;;12.38;51.62;94151.66;5060252;28;20033;-70
2023/04/09 07:55:24;;;;;;;17.10;9.68;;;;;;;12.35;52.70;94157.63;5061119;28;20071;-70
2023/04/09 07:57:50;;;;;;;13.23;8.75;;;;;;;12.28;53.17;94160.00;5061079;28;20049;-70
2023/04/09 08:00:16;;;;;;;12.70;9.02;;;;;;;12.14;53.07;94154.81;5061157;28;20208;-70
2023/04/09 08:02:42;;;;;;;14.73;9.00;;;;;;;12.08;52.72;94156.88;5061300;28;20033;-70
2023/04/09 08:05:08;;;;;;;13.40;9.35;;;;;;;12.02;53.46;94158.91;5061916;28;20096;-70
2023/04/09 08:07:33;;;;;;;13.63;8.75;;;;;;;12.00;53.47;94168.34;5061266;28;20086;-67
2023/04/09 08:09:59;;;;;;;12.82;8.77;;;;;;;12.01;52.77;94164.59;5062191;28;20059;-67
2023/04/09 08:12:24;;;;;;;13.20;8.48;;;;;;;11.91;53.11;94164.91;5063279;28;20021;-68
2023/04/09 08:14:49;;;;;;;14.32;8.45;;;;;;;11.84;52.31;94162.63;5066213;28;20043;-68
2023/04/09 08:17:15;;;;;;;12.00;7.53;;;;;;;11.71;53.08;94167.03;5066341;28;20036;-68
2023/04/09 08:19:40;;;;;;;14.70;9.40;;;;;;;11.73;53.64;94166.72;5066060;28;20103;-68
2023/04/09 08:22:06;;;;;;;13.40;7.85;;;;;;;11.71;53.38;94167.03;5065855;28;20031;-69
2023/04/09 08:24:31;;;;;;;12.32;8.18;;;;;;;11.70;53.48;94162.00;5064648;28;20059;-68
2023/04/09 08:26:57;;;;;;;14.90;9.38;;;;;;;11.68;54.33;94162.31;5065963;28;20052;-69
2023/04/09 08:29:22;;;;;;;14.27;9.00;;;;;;;11.68;54.07;94167.63;5065799;28;20316;-68
2023/04/09 08:31:48;;;;;;;14.15;9.00;;;;;;;11.69;54.10;94155.88;5065845;28;20361;-68
2023/04/09 08:34:14;;;;;;;13.80;9.68;;;;;;;11.70;53.96;94153.97;5065979;28;20027;-68
2023/04/09 08:36:44;;;;;;;14.48;8.48;;;;;;;11.71;53.86;94161.69;5064896;28;20028;-68
2023/04/09 08:39:09;;;;;;;16.13;9.82;;;;;;;11.71;54.10;94155.56;5064251;28;20071;-68
2023/04/09 08:41:40;;;;;;;17.95;9.10;;;;;;;11.69;54.48;94160.44;5063894;28;20025;-69
2023/04/09 08:44:06;;;;;;;15.73;8.55;;;;;;;11.66;54.32;94153.81;5063630;28;20217;-69
2023/04/09 08:46:31;;;;;;;17.08;9.43;;;;;;;11.61;53.99;94157.44;5063691;28;20091;-69
2023/04/09 08:48:56;;;;;;;15.85;8.77;;;;;;;11.58;54.47;94152.72;5063998;28;20017;-69
2023/04/09 08:51:23;;;;;;;18.33;9.40;;;;;;;11.55;54.44;94152.56;5063778;28;20024;-69
2023/04/09 08:53:54;;;;;;;19.73;9.30;;;;;;;11.52;54.18;94161.16;5064083;28;20044;-69
2023/04/09 08:56:22;;;;;;;14.30;9.75;;;;;;;11.47;54.90;94158.66;5063808;28;20036;-69
2023/04/09 08:58:48;;;;;;;12.13;8.95;;;;;;;11.49;54.71;94165.25;5064938;28;20024;-69
2023/04/09 09:01:25;;;;;;;15.88;9.82;;;;;;;11.53;54.81;94149.41;5065611;28;20104;-70
2023/04/09 09:03:55;;;;;;;18.58;8.98;;;;;;;11.50;54.51;94155.34;5065632;28;20033;-69
2023/04/09 09:06:23;;;;;;;15.73;9.25;;;;;;;11.47;54.43;94150.66;5065302;28;20029;-69
2023/04/09 09:09:04;;;;;;;19.05;10.52;;;;;;;11.51;55.62;94148.94;5065660;28;20056;-69
2023/04/09 09:11:29;;;;;;;17.52;9.75;;;;;;;11.59;54.95;94153.50;5065060;28;20025;-69
2023/04/09 09:14:15;;;;;;;15.73;9.27;;;;;;;11.59;54.93;94145.50;5064863;28;20021;-69
2023/04/09 09:17:03;;;;;;;17.88;9.60;;;;;;;11.64;53.86;94148.00;5065103;28;20024;-70
2023/04/09 09:19:32;;;;;;;15.48;9.88;;;;;;;11.71;53.69;94140.31;5065075;28;20024;-69
2023/04/09 09:22:00;;;;;;;13.73;8.63;;;;;;;11.72;52.77;94144.56;5064830;28;20024;-69
2023/04/09 09:24:26;;;;;;;17.38;10.23;;;;;;;11.73;53.24;94146.13;5063625;28;20052;-69
2023/04/09 09:26:53;;;;;;;14.10;9.20;;;;;;;11.81;53.01;94139.25;5064891;28;20033;-69
2023/04/09 09:29:18;;;;;;;12.25;7.43;;;;;;;11.91;52.70;94143.53;5065052;28;20016;-69
2023/04/09 09:31:52;;;;;;;14.48;8.82;;;;;;;12.02;52.35;94139.44;5064936;28;20016;-69
2023/04/09 09:34:19;;;;;;;12.95;8.25;;;;;;;12.15;51.87;94132.34;5064938;28;20024;-70
2023/04/09 09:36:45;;;;;;;12.38;8.63;;;;;;;12.21;50.79;94139.91;5064929;28;20056;-69
2023/04/09 09:39:12;;;;;;;14.20;7.80;;;;;;;12.23;51.33;94132.34;5064636;28;20075;-69
2023/04/09 09:41:38;;;;;;;12.90;8.88;;;;;;;12.34;50.92;94135.47;5064730;28;20334;-69
2023/04/09 09:44:05;;;;;;;14.80;8.50;;;;;;;12.53;50.26;94127.09;5064511;28;20140;-69
2023/04/09 09:46:37;;;;;;;12.48;8.15;;;;;;;12.67;49.71;94124.22;5064569;28;20027;-69
2023/04/09 09:49:03;;;;;;;11.40;8.13;;;;;;;12.74;49.38;94118.38;5064581;28;20066;-69
2023/04/09 09:51:31;;;;;;;12.40;8.10;;;;;;;12.85;49.58;94114.25;5064660;28;20050;-69
2023/04/09 09:53:57;;;;;;;16.75;9.30;;;;;;;13.05;48.91;94120.81;5064498;28;20021;-69
2023/04/09 09:56:43;;;;;;;13.73;8.27;;;;;;;13.20;47.50;94109.53;5064247;28;20090;-69
2023/04/09 09:59:19;;;;;;;15.63;8.65;;;;;;;13.25;46.96;94112.03;5064338;28;20162;-69
2023/04/09 10:01:46;;;;;;;12.50;7.88;;;;;;;13.32;46.58;94113.44;5064514;28;20016;-69
2023/04/09 10:04:14;;;;;;;13.60;8.20;;;;;;;13.43;47.10;94118.13;5064157;28;20032;-69
2023/04/09 10:06:43;;;;;;;11.48;7.47;;;;;;;13.52;46.43;94110.03;5064124;28;20031;-69
2023/04/09 10:09:09;;;;;;;10.77;8.15;;;;;;;13.67;46.53;94115.91;5064248;28;20060;-69
2023/04/09 10:11:36;;;;;;;10.05;6.68;;;;;;;13.80;46.17;94101.50;5064176;28;20020;-69
2023/04/09 10:14:04;;;;;;;10.45;6.68;;;;;;;13.99;46.21;94114.41;5064094;28;20021;-69
2023/04/09 10:16:30;;;;;;;11.85;7.68;;;;;;;14.13;44.63;94109.56;5063923;28;20315;-69
2023/04/09 10:18:56;;;;;;;10.05;7.07;;;;;;;14.17;45.16;94094.38;5064105;28;20093;-70
2023/04/09 10:21:29;;;;;;;9.43;7.00;;;;;;;14.33;44.13;94096.44;5063987;28;20050;-69
2023/04/09 10:23:55;;;;;;;13.90;8.25;;;;;;;14.34;44.18;94095.34;5063834;28;20033;-69
2023/04/09 10:26:26;;;;;;;10.35;7.82;;;;;;;14.46;43.77;94098.06;5063821;28;20094;-69
2023/04/09 10:29:15;;;;;;;11.05;7.07;;;;;;;14.57;43.27;94104.59;5063655;28;20043;-69
2023/04/09 10:31:53;;;;;;;8.75;5.85;;;;;;;14.63;42.31;94100.59;5063649;28;20029;-69
2023/04/09 10:34:25;;;;;;;9.18;6.43;;;;;;;14.78;42.23;94101.06;5063720;28;20090;-70
2023/04/09 10:36:55;;;;;;;8.80;6.57;;;;;;;14.91;42.05;94099.19;5063492;28;20339;-69
2023/04/09 10:39:25;;;;;;;8.35;5.40;;;;;;;14.94;39.68;94093.94;5063440;28;20025;-69
2023/04/09 10:41:53;;;;;;;9.55;6.72;;;;;;;15.08;41.42;94090.13;5063716;28;20310;-70
2023/04/09 10:44:19;;;;;;;9.48;5.97;;;;;;;15.25;40.28;94093.38;5063436;28;20204;-70
2023/04/09 10:46:45;;;;;;;9.35;5.75;;;;;;;15.10;39.94;94088.69;5063582;28;20021;-69
2023/04/09 10:49:12;;;;;;;10.60;7.20;;;;;;;15.20;40.99;94093.59;5063405;28;20024;-70
2023/04/09 10:51:38;;;;;;;8.05;5.68;;;;;;;15.35;40.55;94092.13;5063500;28;20031;-70
2023/04/09 10:54:32;;;;;;;9.60;5.57;;;;;;;15.48;39.17;94095.59;5063306;28;20044;-70
2023/04/09 10:57:07;;;;;;;8.15;5.57;;;;;;;15.50;38.59;94081.81;5063176;28;20432;-69
2023/04/09 10:59:39;;;;;;;8.88;6.03;;;;;;;15.64;39.00;94079.56;5063314;28;20092;-70
2023/04/09 11:02:29;;;;;;;8.00;5.15;;;;;;;15.71;38.16;94074.38;5063336;28;20259;-69
2023/04/09 11:05:09;;;;;;;6.68;4.97;;;;;;;15.59;38.07;94077.09;5062754;28;20032;-69
2023/04/09 11:07:41;;;;;;;8.38;5.72;;;;;;;15.76;38.66;94071.50;5063248;28;20196;-70
2023/04/09 11:10:07;;;;;;;7.15;5.75;;;;;;;15.98;38.25;94070.19;5063107;28;20342;-70
2023/04/09 11:12:32;;;;;;;7.25;5.13;;;;;;;16.20;37.67;94065.38;5062911;28;20051;-70
2023/04/09 11:14:58;;;;;;;7.13;4.68;;;;;;;16.35;36.94;94070.03;5063309;28;20013;-70
2023/04/09 11:17:24;;;;;;;9.10;5.43;;;;;;;16.42;36.44;94077.50;5062967;28;20341;-70
2023/04/09 11:19:49;;;;;;;9.68;5.30;;;;;;;16.35;35.90;94071.94;5063004;28;20215;-70
2023/04/09 11:22:15;;;;;;;7.18;5.07;;;;;;;16.31;36.52;94074.53;5062799;28;20024;-70
2023/04/09 11:24:45;;;;;;;9.52;5.97;;;;;;;16.28;36.81;94077.91;5062779;28;20382;-70
2023/04/09 11:27:11;;;;;;;10.65;5.63;;;;;;;16.42;36.58;94066.75;5062898;28;20044;-70